Latest Weather Observations for Browse Island

IDW60801

Issued at 12:33 pm WST Tuesday 15 October 2019 (issued every 10 minutes, with the page automatically refreshed every 10 minutes)

About weather observations | Map of weather stations | Latest weather observations for WA | Other Formats
Station Details ID: 200784 Name: BROWSE ISLAND Lat: -14.11 Lon: 123.55 Height: 3.7 m
Data from the previous 72 hours. | See also: Recent months at Browse Island
Date/Time
WST
Temp
°C
App
Temp
°C
Dew
Point
°C
Rel
Hum
%
Delta-T
°C
Wind Press
QNH
hPa
Press
MSL
hPa
Rain since
9am
mm
Dir  Spd
km/h
Gust
km/h
Spd
kts
Gust
kts
15/12:30pm 29.0 - - - - NW 7 7 4 4 1012.0 - -
15/12:00pm 28.6 - - - - NNW 9 - 5 - 1012.0 1012.5 -
15/11:30am 29.0 - - - - NNW 9 - 5 - 1012.0 - -
15/11:00am 28.5 - - - - NNW 9 - 5 - 1013.0 1013.1 -
15/10:30am 29.0 - - - - N 9 - 5 - 1013.0 - -
15/10:00am 28.3 - - - - NNW 7 - 4 - 1013.0 1013.5 -
15/09:30am 28.0 - - - - N 7 - 4 - 1013.0 - -
15/09:00am 27.8 - - - - N 2 - 1 - 1013.0 1013.8 -
15/08:30am 27.4 - - - - CALM 0 0 0 0 1013.9 1013.8 -
15/08:00am 28.0 - - - - CALM 0 - 0 - 1013.0 1013.7 -
15/07:30am 28.0 - - - - CALM 0 - 0 - 1013.0 - -
15/07:00am 27.2 - - - - CALM 0 - 0 - 1013.0 1013.4 -
15/06:30am 27.0 - - - - CALM 0 - 0 - 1013.0 - -
15/06:00am 26.3 - - - - CALM 0 - 0 - 1012.0 1012.6 -
15/05:30am 26.0 - - - - CALM 0 - 0 - 1012.0 - -
15/05:00am 26.1 - - - - CALM 0 - 0 - 1012.0 1012.2 -
15/04:30am 26.0 - - - - CALM 0 - 0 - 1012.0 - -
15/04:00am 26.3 - - - - CALM 0 - 0 - 1011.0 1011.7 -
15/03:30am 26.0 - - - - CALM 0 - 0 - 1011.0 - -
15/03:00am 26.3 - - - - CALM 0 - 0 - 1011.0 1011.5 -
15/02:30am 26.0 - - - - CALM 0 - 0 - 1011.0 - -
15/02:00am 26.6 - - - - CALM 0 - 0 - 1011.0 1011.4 -
15/01:30am 27.0 - - - - SSE 4 - 2 - 1011.0 - -
15/01:00am 27.0 - - - - S 7 - 4 - 1011.0 1011.8 -
15/12:30am 27.0 - - - - S 9 - 5 - 1012.0 - -
15/12:00am 27.2 - - - - SSW 9 - 5 - 1012.0 1012.2 -
 
Date/Time
WST
Temp
°C
App
Temp
°C
Dew
Point
°C
Rel
Hum
%
Delta-T
°C
Wind Press
QNH
hPa
Press
MSL
hPa
Rain since
9am
mm
Dir  Spd
km/h
Gust
km/h
Spd
kts
Gust
kts
14/11:30pm 27.0 - - - - SSW 9 - 5 - 1012.0 - -
14/11:00pm 27.5 - - - - SW 7 - 4 - 1012.0 1012.5 -
14/10:30pm 28.0 - - - - WSW 7 - 4 - 1012.0 - -
14/10:00pm 27.6 - - - - WSW 9 - 5 - 1012.0 1012.3 -
14/09:30pm 27.7 - - - - WSW 11 13 6 7 1012.4 1012.3 -
14/09:00pm 27.9 - - - - WSW 11 - 6 - 1012.0 1012.2 -
14/08:30pm 28.0 - - - - WSW 17 - 9 - 1012.0 - -
14/08:00pm 27.8 - - - - WSW 17 - 9 - 1011.0 1011.7 -
14/07:30pm 28.0 - - - - WSW 17 - 9 - 1011.0 - -
14/07:00pm 27.8 - - - - WSW 17 - 9 - 1011.0 1011.4 -
14/06:30pm 28.0 - - - - WSW 17 - 9 - 1011.0 - -
14/06:00pm 27.7 - - - - W 17 - 9 - 1011.0 1011.0 -
14/05:30pm 27.9 - - - - W 15 17 8 9 1011.0 1010.9 -
14/05:00pm 28.0 - - - - WSW 13 - 7 - 1010.0 1010.7 -
14/04:30pm 28.0 - - - - WSW 13 - 7 - 1010.0 - -
14/04:00pm 28.5 - - - - WSW 11 - 6 - 1010.0 1010.5 -
14/03:30pm 29.0 - - - - W 9 - 5 - 1010.0 - -
14/03:00pm 29.1 - - - - W 9 - 5 - 1010.0 1010.7 -
14/02:30pm 29.0 - - - - WSW 11 - 6 - 1010.0 - -
14/02:00pm 28.4 - - - - WSW 9 - 5 - 1011.0 1011.2 -
14/01:30pm 28.0 - - - - WSW 9 - 5 - 1011.0 - -
14/01:00pm 28.0 - - - - CALM 0 - 0 - 1011.0 1011.7 -
14/12:30pm 28.0 - - - - CALM 0 - 0 - 1012.0 - -
14/12:00pm 28.8 - - - - CALM 0 - 0 - 1012.0 1012.5 -
14/11:30am 28.3 - - - - WSW 4 7 2 4 1013.1 1013.0 -
14/11:00am 28.3 - - - - CALM 0 - 0 - 1013.0 1013.4 -
14/10:30am 28.0 - - - - CALM 0 - 0 - 1013.0 - -
14/10:00am 28.5 - - - - CALM 0 - 0 - 1014.0 1013.9 -
14/09:30am 28.0 - - - - S 4 - 2 - 1013.0 - -
14/09:00am 27.6 - - - - CALM 0 - 0 - 1013.0 1013.7 -
14/08:30am 27.4 - - - - SSW 9 11 5 6 1013.7 1013.6 -
14/08:00am 27.3 - - - - S 11 - 6 - 1013.0 1013.5 -
14/07:30am 27.0 - - - - S 9 - 5 - 1013.0 - -
14/07:00am 26.9 - - - - CALM 0 - 0 - 1013.0 1013.0 -
14/06:30am 27.0 - - - - S 9 - 5 - 1012.0 - -
14/06:00am 26.7 - - - - SSW 11 - 6 - 1012.0 1011.9 -
14/05:30am 26.7 - - - - SSW 13 15 7 8 1011.6 1011.5 -
14/05:00am 26.8 - - - - SW 15 - 8 - 1011.0 1011.1 -
14/04:30am 26.8 - - - - SW 13 15 7 8 1010.8 1010.7 -
14/04:00am 26.9 - - - - SW 13 - 7 - 1010.0 1010.6 -
14/03:30am 27.0 - - - - SW 13 - 7 - 1010.0 - -
14/03:00am 27.2 - - - - WSW 15 - 8 - 1010.0 1009.9 -
14/02:30am 27.0 - - - - WSW 13 - 7 - 1009.0 - -
14/02:00am 27.5 - - - - WSW 11 - 6 - 1010.0 1010.0 -
14/01:30am 28.0 - - - - SW 11 - 6 - 1010.0 - -
14/01:00am 27.6 - - - - WSW 11 13 6 7 1010.6 1010.5 -
14/12:30am 28.0 - - - - SW 13 - 7 - 1010.0 - -
14/12:00am 27.9 - - - - WSW 13 - 7 - 1011.0 1010.9 -
 
Date/Time
WST
Temp
°C
App
Temp
°C
Dew
Point
°C
Rel
Hum
%
Delta-T
°C
Wind Press
QNH
hPa
Press
MSL
hPa
Rain since
9am
mm
Dir  Spd
km/h
Gust
km/h
Spd
kts
Gust
kts
13/11:30pm 28.0 - - - - WSW 15 - 8 - 1011.0 - -
13/11:00pm 28.0 - - - - WSW 15 - 8 - 1011.0 1011.2 -
13/10:30pm 28.0 - - - - W 15 - 8 - 1011.0 - -
13/10:00pm 28.1 - - - - W 13 - 7 - 1011.0 1011.3 -
13/09:30pm 28.0 - - - - W 15 - 8 - 1011.0 - -
13/09:00pm 28.0 - - - - W 17 - 9 - 1011.0 1011.1 -
13/08:30pm 28.0 - - - - W 19 - 10 - 1011.0 - -
13/08:00pm 27.9 - - - - W 19 - 10 - 1010.0 1010.7 -
13/07:30pm 28.0 - - - - W 15 - 8 - 1010.0 - -
13/07:00pm 27.8 - - - - W 13 - 7 - 1010.0 1010.6 -
13/06:30pm 28.0 - - - - WSW 13 - 7 - 1010.0 - -
13/06:00pm 27.7 - - - - WSW 13 - 7 - 1010.0 1010.1 -
13/05:30pm 28.0 - - - - SW 13 - 7 - 1010.0 - -
13/05:00pm 28.2 - - - - SW 13 - 7 - 1010.0 1009.9 -
13/04:30pm 28.0 - - - - SW 13 - 7 - 1009.0 - -
13/04:00pm 28.2 - - - - SW 11 - 6 - 1010.0 1009.9 -
13/03:30pm 28.0 - - - - SSW 11 - 6 - 1010.0 - -
13/03:00pm 28.2 - - - - SSW 11 - 6 - 1010.0 1010.3 -
13/02:30pm 29.0 - - - - SSW 4 - 2 - 1010.0 - -
13/02:00pm 29.0 - - - - SSW 9 - 5 - 1010.0 1010.7 -
13/01:30pm 28.0 - - - - SW 7 - 4 - 1011.0 - -
13/01:00pm 29.0 - - - - SW 4 - 2 - 1011.0 1011.1 -
13/12:30pm 29.0 - - - - SW 6 - 3 - 1011.0 - -
13/12:00pm 27.8 - - - - SW 9 - 5 - 1011.0 1011.8 -
13/11:30am 28.0 - - - - SW 11 - 6 - 1012.0 - -
13/11:00am 27.8 - - - - SW 9 - 5 - 1012.0 1012.5 -
13/10:30am 28.0 - - - - WSW 9 - 5 - 1013.0 - -
13/10:00am 27.6 - - - - WSW 9 9 5 5 1013.3 1013.2 -
13/09:30am 28.0 - - - - WSW 7 - 4 - 1013.0 - -
13/09:00am 27.6 - - - - W 7 9 4 5 1013.4 1013.3 -
13/08:30am 27.3 - - - - W 9 11 5 6 1013.3 1013.2 -
13/08:00am 27.3 - - - - W 9 - 5 - 1013.0 1013.1 -
13/07:30am 27.0 - - - - W 11 - 6 - 1013.0 - -
13/07:00am 26.9 - - - - W 13 - 7 - 1012.0 1012.6 -
13/06:30am 27.0 - - - - W 9 - 5 - 1012.0 - -
13/06:00am 26.8 - - - - W 13 - 7 - 1012.0 1012.1 -
13/05:30am 27.0 - - - - W 13 - 7 - 1012.0 - -
13/05:00am 26.8 - - - - W 13 - 7 - 1011.0 1011.7 -
13/04:30am 26.8 - - - - W 15 19 8 10 1011.6 1011.5 -
13/04:00am 26.8 - - - - W 17 - 9 - 1011.0 1011.0 -
13/03:30am 27.0 - - - - WNW 13 - 7 - 1010.0 - -
13/03:00am 26.9 - - - - W 11 - 6 - 1010.0 1010.7 -
13/02:30am 27.0 - - - - W 11 - 6 - 1010.0 - -
13/02:00am 27.1 - - - - WSW 13 - 7 - 1010.0 1010.5 -
13/01:30am 27.0 - - - - WSW 13 - 7 - 1010.0 - -
13/01:00am 27.3 - - - - SW 15 - 8 - 1010.0 1010.6 -
13/12:30am 27.0 - - - - SW 19 - 10 - 1010.0 - -
13/12:00am 27.4 - - - - WSW 17 - 9 - 1010.0 1010.7 -
 
Date/Time
WST
Temp
°C
App
Temp
°C
Dew
Point
°C
Rel
Hum
%
Delta-T
°C
Wind Press
QNH
hPa
Press
MSL
hPa
Rain since
9am
mm
Dir  Spd
km/h
Gust
km/h
Spd
kts
Gust
kts
12/11:30pm 27.0 - - - - WSW 17 - 9 - 1011.0 - -
12/11:00pm 27.4 - - - - W 17 - 9 - 1011.0 1011.1 -
12/10:30pm 28.0 - - - - W 15 - 8 - 1011.0 - -
12/10:00pm 27.6 - - - - W 15 - 8 - 1011.0 1011.6 -
12/09:30pm 27.7 - - - - W 17 20 9 11 1011.7 1011.6 -
12/09:00pm 27.6 - - - - W 19 - 10 - 1011.0 1011.4 -
12/08:30pm 28.0 - - - - W 20 - 11 - 1011.0 - -
12/08:00pm 27.8 - - - - W 20 - 11 - 1011.0 1011.0 -
12/07:30pm 28.0 - - - - W 20 - 11 - 1011.0 - -
12/07:00pm 27.9 - - - - W 20 - 11 - 1010.0 1010.7 -
12/06:30pm 28.0 - - - - W 19 - 10 - 1010.0 - -
12/06:00pm 27.9 - - - - W 17 20 9 11 1010.3 1010.2 -
12/05:30pm 28.1 - - - - W 17 20 9 11 1010.1 1010.0 -
12/05:00pm 28.0 - - - - W 15 - 8 - 1009.0 1009.8 -
12/04:30pm 28.0 - - - - W 13 - 7 - 1009.0 - -
12/04:00pm 28.4 - - - - WSW 9 - 5 - 1009.0 1009.3 -
12/03:30pm 28.7 - - - - WSW 11 15 6 8 1009.2 1009.1 -
12/03:00pm 28.8 - - - - WSW 9 - 5 - 1009.0 1009.2 -
12/02:30pm 28.0 - - - - SW 7 - 4 - 1009.0 - -
12/02:00pm 28.2 - - - - SW 9 - 5 - 1009.0 1009.6 -
12/01:30pm 28.0 - - - - SW 9 - 5 - 1009.0 - -
12/01:00pm 28.2 - - - - SW 9 - 5 - 1010.0 1009.9 -

Other formats

Comma delimited format used in spreadsheet applications
http://www.bom.gov.au/fwo/IDW60801/IDW60801.94103.axf

JavaScript Object Notation format (JSON) in row-major order
http://www.bom.gov.au/fwo/IDW60801/IDW60801.94103.json

Data quality

Most of these data are generated automatically and are frequently updated. Quality checks on data are not normally performed. It is possible for incorrect values to appear. Refer to information at About Latest Weather Observations and please check the disclaimer before using these data.